Adrian, Oregon
Current Conditions -  °F | °C
As of 11:05 PM on Friday 19 Dec 2014 (Local Time) from KONO Reporting Station
Haze Haze  
Wind Chill: 35°   Ceiling: 4900
Heat Index: 35°   Visibility: 3mi
Dew Point: 33°   Wind: 0mph
Humidity: 92%   Direction: NA
Pressure: 30.11"   Gusts: NA
Location:  43.74°N, 117.07°W
Report Text: KONO 200605Z AUTO 00000KT 3SM BR FEW001 SCT038 BKN049 02/01 A3011 RMK AO2 T00170006
Loading
Personal Weather Stations






























Interactive Weather Map New forecast layout! Learn more

10-Day Weather Forecast

Advertisements
Track Severe Weather on mobile